Time;durP1;ratioP1;P1;durP2;ratioP2;P2;SDS_P1;SDS_P2;PMS_P1;PMS_P2;Temp;Humidity;BMP_temperature;BMP_pressure;BME280_temperature;BME280_humidity;BME280_pressure;Samples;Min_cycle;Max_cycle;Signal;HPM_P1;HPM_P2
2022/01/04 06:23:12;;;;;;;12.73;1.45;;;;;;;12.79;68.42;98679.34;6004188;23;20104;31
2022/01/04 06:42:32;;;;;;;3.72;0.90;;;;;;;12.52;68.31;98685.66;5816021;23;20052;-96
2022/01/04 08:00:13;;;;;;;3.13;2.10;;;;;;;8.40;71.83;98838.56;5127904;23;20075;-96
2022/01/04 08:02:40;;;;;;;2.05;1.85;;;;;;;8.14;71.33;98831.09;4982931;23;20051;-96
2022/01/04 08:07:41;;;;;;;1.88;1.55;;;;;;;8.49;70.81;98855.28;5786399;23;20067;-95
2022/01/04 08:10:07;;;;;;;3.85;1.55;;;;;;;8.48;70.83;98844.00;4969640;23;20047;-95
2022/01/04 08:12:32;;;;;;;2.05;1.75;;;;;;;8.43;70.02;98842.72;4962236;28;20026;-95
2022/01/04 08:22:43;;;;;;;1.40;1.15;;;;;;;8.10;71.15;98870.72;5399481;23;20046;-95
2022/01/04 08:25:10;;;;;;;1.38;1.20;;;;;;;8.53;69.42;98875.00;4971459;28;20082;-96
2022/01/04 08:27:37;;;;;;;1.30;1.20;;;;;;;7.89;70.78;98876.72;5166442;23;20026;-96
2022/01/04 08:30:05;;;;;;;1.15;1.00;;;;;;;7.59;70.94;98874.81;4978147;28;20402;-96
2022/01/04 08:32:31;;;;;;;0.95;0.60;;;;;;;8.01;69.65;98897.59;4961997;28;20030;-96
2022/01/04 11:09:06;;;;;;;1.73;0.80;;;;;;;9.21;60.58;99221.00;3084909;23;20203;-96
2022/01/04 11:14:09;;;;;;;3.13;0.95;;;;;;;9.02;60.35;99205.94;1185824;23;20346;-86
2022/01/04 11:39:52;;;;;;;3.53;1.20;;;;;;;9.10;59.92;99242.00;937659;23;20311;-87
2022/01/04 11:42:37;;;;;;;5.65;0.93;;;;;;;9.38;60.45;99261.56;4968626;28;20056;-96
2022/01/04 11:45:07;;;;;;;5.65;0.90;;;;;;;9.85;59.65;99271.72;4961430;28;20031;-96
2022/01/04 11:47:35;;;;;;;5.30;1.13;;;;;;;9.56;59.40;99250.53;4960749;29;20024;-95
2022/01/04 11:50:13;;;;;;;3.80;0.90;;;;;;;9.78;59.46;99268.78;4962627;28;20031;-96
2022/01/04 11:52:55;;;;;;;2.28;1.00;;;;;;;9.78;59.43;99262.72;5296766;23;20047;-96
2022/01/04 11:55:34;;;;;;;4.45;1.08;;;;;;;9.80;58.04;99258.16;4942636;29;20051;-96
2022/01/04 11:58:17;;;;;;;3.95;1.52;;;;;;;9.95;58.78;99250.81;4943535;29;20109;-96
2022/01/04 12:00:57;;;;;;;4.78;0.90;;;;;;;10.26;58.19;99252.50;4942591;29;20059;-96
2022/01/04 12:03:38;;;;;;;3.65;0.95;;;;;;;9.93;56.91;99253.53;4940728;29;20020;-96
2022/01/04 12:06:05;;;;;;;6.18;0.80;;;;;;;9.68;57.11;99252.97;4942313;29;20016;-96
2022/01/04 12:08:37;;;;;;;5.90;1.17;;;;;;;10.15;56.90;99272.72;4939558;29;20036;-96
2022/01/04 12:11:03;;;;;;;7.45;1.20;;;;;;;9.78;57.25;99258.28;4938910;29;20110;-96
2022/01/04 12:13:55;;;;;;;6.72;0.95;;;;;;;10.44;56.72;99275.53;4938681;29;20028;-96
2022/01/04 12:16:37;;;;;;;13.50;1.10;;;;;;;10.21;55.89;99252.06;4939267;29;20040;-96
2022/01/04 12:19:08;;;;;;;8.77;1.05;;;;;;;10.67;55.44;99253.41;4939576;29;20012;-96
2022/01/04 12:26:44;;;;;;;4.15;0.93;;;;;;;11.34;53.10;99264.19;5786936;23;20035;-93
2022/01/04 12:29:09;;;;;;;3.47;1.00;;;;;;;12.59;51.83;99277.31;4984343;29;20045;-96
2022/01/04 12:31:45;;;;;;;6.07;1.17;;;;;;;12.69;51.28;99257.00;4981013;28;20071;-96
2022/01/04 12:34:40;;;;;;;12.38;1.73;;;;;;;12.85;50.56;99253.75;4964812;29;20003;-96
2022/01/04 12:37:09;;;;;;;5.95;1.52;;;;;;;12.98;49.88;99248.13;4959541;29;20027;-96
2022/01/04 12:39:42;;;;;;;8.73;1.40;;;;;;;13.23;50.31;99251.88;4964228;29;20004;-94
2022/01/04 12:42:09;;;;;;;11.75;1.10;;;;;;;12.93;49.93;99260.91;4964665;29;20008;-96
2022/01/04 12:47:12;;;;;;;7.93;1.50;;;;;;;12.78;49.35;99254.50;5594775;23;20027;-96
2022/01/04 12:49:38;;;;;;;7.65;1.20;;;;;;;12.97;50.81;99256.19;4983245;28;20022;-96
2022/01/04 12:52:07;;;;;;;5.00;1.00;;;;;;;13.18;51.01;99254.09;4998729;23;20039;-96
2022/01/04 12:57:21;;;;;;;10.60;2.03;;;;;;;13.73;50.10;99252.34;2216156;26;20028;-88
2022/01/04 12:59:57;;;;;;;11.60;1.58;;;;;;;13.36;48.66;99269.16;4964637;28;20032;-91
2022/01/04 14:51:22;;;;;;;10.85;1.88;;;;;;;10.51;52.74;99364.13;5347629;23;20055;-96
2022/01/04 14:53:47;;;;;;;12.55;2.97;;;;;;;10.36;52.67;99365.41;4917280;29;20034;-96
2022/01/04 14:56:13;;;;;;;13.00;1.50;;;;;;;10.34;52.69;99369.94;4923138;29;20032;-96
2022/01/04 14:58:38;;;;;;;10.55;1.67;;;;;;;10.14;52.11;99376.81;4936813;29;20035;-95
2022/01/04 15:01:04;;;;;;;11.80;1.92;;;;;;;9.58;52.21;99379.63;4937717;29;20056;-96
2022/01/04 15:03:30;;;;;;;10.82;2.05;;;;;;;9.97;52.74;99385.22;4920689;29;20410;-96
2022/01/04 15:05:56;;;;;;;12.45;2.03;;;;;;;10.00;51.86;99385.81;4919672;29;20028;-96
2022/01/04 15:08:21;;;;;;;9.27;1.80;;;;;;;9.83;51.67;99391.59;4930743;29;20127;-96
2022/01/04 15:10:47;;;;;;;12.48;1.80;;;;;;;10.03;53.10;99395.22;4931782;29;20024;-95
2022/01/04 15:13:12;;;;;;;10.80;1.77;;;;;;;9.95;52.58;99405.50;4929134;29;20422;-96
2022/01/04 15:15:37;;;;;;;10.95;2.00;;;;;;;10.10;51.65;99405.09;4937222;29;20036;-96
2022/01/04 15:18:03;;;;;;;10.48;1.98;;;;;;;9.84;53.34;99406.38;4935681;29;20019;-96
2022/01/04 15:20:29;;;;;;;8.57;2.97;;;;;;;9.99;53.00;99418.25;4936013;29;20105;-96
2022/01/04 15:22:54;;;;;;;8.43;1.55;;;;;;;9.79;51.64;99425.09;4935053;29;20160;-96
2022/01/04 15:25:23;;;;;;;11.40;1.80;;;;;;;9.61;52.61;99426.56;4935825;29;20050;-96
2022/01/04 15:27:53;;;;;;;7.78;1.52;;;;;;;9.61;53.37;99429.19;4935813;29;20488;-96
2022/01/04 15:30:18;;;;;;;9.65;1.40;;;;;;;9.62;53.62;99444.81;4935813;29;20414;-95
2022/01/04 15:32:44;;;;;;;7.03;1.65;;;;;;;9.81;52.61;99451.19;4935654;29;20036;-96
2022/01/04 15:35:09;;;;;;;10.85;1.60;;;;;;;9.65;53.03;99454.22;4935426;29;20115;-96
2022/01/04 15:37:34;;;;;;;11.70;2.25;;;;;;;9.57;54.15;99459.22;4925546;29;20171;-96
2022/01/04 15:40:00;;;;;;;8.23;1.90;;;;;;;9.69;54.05;99466.94;4915494;29;20402;-96
2022/01/04 15:42:27;;;;;;;9.55;1.52;;;;;;;9.74;54.09;99461.34;4916750;29;20036;-96
2022/01/04 15:44:53;;;;;;;10.40;1.48;;;;;;;9.72;54.41;99469.31;4935568;29;20032;-96
2022/01/04 15:47:19;;;;;;;12.23;2.17;;;;;;;9.55;53.30;99469.81;4917208;29;20149;-96
2022/01/04 15:49:45;;;;;;;16.77;2.20;;;;;;;9.40;54.18;99471.00;4916784;29;20028;-96
2022/01/04 15:52:13;;;;;;;9.38;1.98;;;;;;;9.38;54.91;99473.78;4924817;29;20043;-96
2022/01/04 15:54:39;;;;;;;8.82;1.77;;;;;;;9.45;54.89;99479.38;4923177;29;20032;-96
2022/01/04 15:57:05;;;;;;;8.32;2.10;;;;;;;9.50;55.24;99485.91;4933410;29;20043;-96
2022/01/04 15:59:30;;;;;;;6.80;2.03;;;;;;;9.38;55.13;99489.50;4918728;29;20035;-96
2022/01/04 16:01:57;;;;;;;15.00;2.53;;;;;;;9.29;54.63;99498.06;4928793;29;20434;-95
2022/01/04 16:04:22;;;;;;;6.50;1.90;;;;;;;9.30;56.00;99502.34;4932235;29;20086;-95
2022/01/04 16:06:50;;;;;;;16.10;1.83;;;;;;;9.12;55.63;99504.56;4934195;29;20016;-96
2022/01/04 16:09:16;;;;;;;12.20;2.28;;;;;;;8.88;54.43;99502.03;4934419;29;20063;-95
2022/01/04 16:11:42;;;;;;;8.88;1.88;;;;;;;8.96;55.47;99504.09;4934524;29;20544;-95
2022/01/04 16:14:07;;;;;;;9.10;2.00;;;;;;;8.63;54.46;99514.34;4936394;29;20055;-95
2022/01/04 16:16:41;;;;;;;13.57;2.30;;;;;;;8.89;55.38;99511.56;4940038;29;20027;-96
2022/01/04 16:21:51;;;;;;;12.30;2.45;;;;;;;8.81;55.22;99516.56;4936381;29;20039;-95
2022/01/04 16:24:20;;;;;;;9.68;1.65;;;;;;;8.91;55.64;99518.34;4933317;29;20024;-96
2022/01/04 16:26:51;;;;;;;10.82;1.92;;;;;;;8.62;55.14;99532.78;4930719;29;20052;-96
2022/01/04 16:29:22;;;;;;;9.60;1.77;;;;;;;8.60;55.13;99527.66;4928157;29;20032;-96
2022/01/04 16:31:51;;;;;;;8.68;2.20;;;;;;;8.57;55.50;99527.91;4925986;29;20032;-96
2022/01/04 16:34:20;;;;;;;15.70;2.30;;;;;;;8.53;55.36;99536.88;4938350;29;20040;-93
2022/01/04 16:36:47;;;;;;;9.02;1.92;;;;;;;8.52;55.93;99535.25;4943969;29;20474;-96
2022/01/04 16:39:17;;;;;;;12.23;2.58;;;;;;;8.67;55.70;99547.19;4939165;29;20031;-95
2022/01/04 16:41:44;;;;;;;10.63;2.40;;;;;;;8.50;55.33;99547.59;4943310;28;20027;-96
2022/01/04 16:44:10;;;;;;;8.02;2.55;;;;;;;8.50;55.06;99547.59;4935652;29;20039;-96
2022/01/04 16:46:38;;;;;;;11.40;2.20;;;;;;;8.26;56.04;99547.56;4929072;29;20081;-96
2022/01/04 16:49:04;;;;;;;14.02;3.22;;;;;;;8.43;54.40;99554.22;4930817;29;20015;-95
2022/01/04 16:51:30;;;;;;;234.35;153.18;;;;;;;8.54;55.00;99551.66;4950961;29;20088;-96
2022/01/04 16:53:55;;;;;;;;;;;;;;;8.51;53.79;99557.97;4953892;29;20031;-96
2022/01/04 16:56:20;;;;;;;13.53;3.03;;;;;;;8.28;55.21;99564.81;4942297;29;20437;-95
2022/01/04 16:58:48;;;;;;;15.60;2.35;;;;;;;8.32;54.93;99566.25;4949509;29;20028;-96
2022/01/04 17:01:14;;;;;;;17.77;2.85;;;;;;;8.09;54.81;99569.69;5023083;23;20047;-96
2022/01/04 17:03:40;;;;;;;10.70;1.80;;;;;;;8.02;54.13;99555.41;5120866;23;20096;-96
2022/01/04 17:06:05;;;;;;;12.57;2.13;;;;;;;8.11;54.57;99581.69;4948853;29;20091;-94
2022/01/04 17:08:34;;;;;;;11.45;2.03;;;;;;;7.94;54.46;99588.13;4946269;28;20034;-95
2022/01/04 17:11:07;;;;;;;12.85;2.38;;;;;;;7.81;55.17;99586.47;4946992;29;20264;-93
2022/01/04 17:16:18;;;;;;;18.73;2.20;;;;;;;8.10;55.34;99595.72;4947004;29;20047;-94
2022/01/04 17:18:44;;;;;;;7.65;1.83;;;;;;;8.02;55.25;99587.59;4949356;29;20024;-94
2022/01/04 17:21:10;;;;;;;11.48;2.65;;;;;;;7.93;55.39;99594.28;4952230;29;20031;-92
2022/01/04 17:23:36;;;;;;;10.52;2.30;;;;;;;8.20;55.30;99602.94;4957941;29;20127;-95
2022/01/04 17:26:02;;;;;;;14.10;2.70;;;;;;;8.36;55.72;99602.66;4942017;29;20035;-93
2022/01/04 17:28:27;;;;;;;13.32;2.00;;;;;;;8.22;55.56;99606.28;4959484;29;20023;-95
2022/01/04 17:30:52;;;;;;;15.60;2.22;;;;;;;8.07;55.85;99608.16;4949575;29;20408;-93
2022/01/04 17:33:18;;;;;;;17.85;2.50;;;;;;;8.22;55.36;99614.94;4940981;29;20099;-94
2022/01/04 17:35:43;;;;;;;10.75;2.00;;;;;;;7.94;56.91;99621.28;4948310;29;20033;-91
2022/01/04 17:38:09;;;;;;;7.53;1.60;;;;;;;7.92;56.04;99618.75;4957583;28;20500;-94
2022/01/04 17:40:35;;;;;;;14.98;2.50;;;;;;;8.03;56.80;99623.22;4942526;29;20030;-91
2022/01/04 17:43:01;;;;;;;10.30;2.13;;;;;;;8.07;55.77;99623.84;4938580;29;20038;-92
2022/01/04 17:45:29;;;;;;;13.88;2.08;;;;;;;7.78;56.19;99624.13;4949943;29;20024;-92
2022/01/04 17:47:56;;;;;;;9.57;2.15;;;;;;;8.02;56.69;99631.22;4945096;29;20043;-94
2022/01/04 17:50:22;;;;;;;9.35;1.98;;;;;;;8.08;56.17;99636.00;4940172;29;20062;-94
2022/01/04 17:52:47;;;;;;;10.90;1.83;;;;;;;8.12;56.68;99642.69;4941569;28;20027;-92
2022/01/04 17:55:13;;;;;;;13.40;2.55;;;;;;;8.03;55.85;99651.16;4945058;29;20030;-94
2022/01/04 17:57:38;;;;;;;10.40;1.90;;;;;;;8.00;56.06;99657.44;4948882;29;20087;-93
2022/01/04 18:00:08;;;;;;;9.68;2.17;;;;;;;7.93;56.92;99667.47;4944482;29;20023;-95
2022/01/04 18:02:33;;;;;;;;;;;;;;;8.14;55.57;99669.56;4943271;28;20027;-92
2022/01/04 18:04:58;;;;;;;13.53;2.70;;;;;;;7.91;56.52;99665.91;4960386;28;20913;-93
2022/01/04 18:07:24;;;;;;;9.20;1.77;;;;;;;8.05;56.22;99681.47;4938556;29;20123;-91
2022/01/04 18:09:49;;;;;;;10.52;1.90;;;;;;;7.82;57.49;99671.75;4936388;29;20028;-92
2022/01/04 18:12:16;;;;;;;9.13;2.03;;;;;;;8.14;56.96;99677.41;4935194;29;20497;-92
2022/01/04 18:14:41;;;;;;;10.13;2.65;;;;;;;7.91;57.02;99677.19;4943661;29;20065;-92
2022/01/04 18:17:07;;;;;;;8.60;1.80;;;;;;;7.97;57.28;99680.34;4938153;29;20513;-92
2022/01/04 18:19:32;;;;;;;8.57;1.50;;;;;;;7.83;58.34;99678.69;4943166;28;20553;-92
2022/01/04 18:21:58;;;;;;;12.25;1.88;;;;;;;7.61;57.90;99679.31;4938136;29;20490;-93
2022/01/04 18:24:23;;;;;;;15.30;2.53;;;;;;;7.75;58.01;99697.50;4943923;29;20035;-96
2022/01/04 18:26:49;;;;;;;7.47;1.95;;;;;;;7.74;58.52;99693.19;4954140;29;20421;-96
2022/01/04 18:29:18;;;;;;;12.07;4.70;;;;;;;7.74;58.40;99698.41;4967044;28;20051;-96
2022/01/04 18:39:24;;;;;;;14.57;3.05;;;;;;;7.62;58.53;99691.41;5011670;23;20043;-93
2022/01/04 18:41:50;;;;;;;9.38;2.03;;;;;;;7.65;59.18;99706.91;4951271;28;20061;-94
2022/01/04 18:44:15;;;;;;;9.25;2.35;;;;;;;7.76;58.17;99707.03;4941638;29;20024;-95
2022/01/04 18:46:41;;;;;;;9.90;1.75;;;;;;;7.83;58.70;99713.47;4945506;29;20394;-94
2022/01/04 18:49:06;;;;;;;17.65;2.55;;;;;;;7.52;58.48;99715.56;4954235;29;20118;-94
2022/01/04 18:51:32;;;;;;;10.27;2.10;;;;;;;7.77;59.04;99716.50;4951027;28;20054;-94
2022/01/04 18:53:57;;;;;;;14.10;2.20;;;;;;;7.72;59.17;99726.44;4952418;28;20057;-95
2022/01/04 18:56:24;;;;;;;9.00;2.38;;;;;;;7.54;58.57;99723.25;4949628;29;20082;-94
2022/01/04 18:58:49;;;;;;;13.40;3.88;;;;;;;7.58;59.05;99724.72;4940150;29;20031;-95
2022/01/04 19:01:15;;;;;;;12.25;2.25;;;;;;;7.83;59.13;99731.78;4943536;28;20046;-95
2022/01/04 19:03:41;;;;;;;13.43;2.08;;;;;;;7.81;58.77;99738.06;4945316;29;20438;-93
2022/01/04 19:06:06;;;;;;;10.90;2.55;;;;;;;7.73;58.96;99733.34;4943566;28;20027;-90
2022/01/04 19:08:32;;;;;;;12.00;1.83;;;;;;;7.78;58.20;99738.25;4945047;29;20035;-95
2022/01/04 19:10:57;;;;;;;9.98;2.08;;;;;;;7.72;59.41;99739.50;4944078;29;20032;-95
2022/01/04 19:13:22;;;;;;;11.18;2.65;;;;;;;7.67;60.06;99741.59;4952078;29;20015;-95
2022/01/04 19:15:55;;;;;;;9.18;2.55;;;;;;;7.70;59.11;99749.22;4972545;28;20038;-95
2022/01/04 19:21:03;;;;;;;6.13;2.35;;;;;;;7.53;58.86;99729.44;5838372;23;21439;-96
2022/01/04 19:23:28;;;;;;;11.88;1.90;;;;;;;7.62;60.29;99751.50;4936080;28;20553;-96
2022/01/04 19:25:55;;;;;;;15.50;3.05;;;;;;;7.53;58.99;99756.41;4926889;29;20119;-96
2022/01/04 19:28:20;;;;;;;8.38;2.47;;;;;;;7.48;59.91;99752.41;4933413;29;20047;-96
2022/01/04 19:31:00;;;;;;;;;;;;;;;;;;;;;
2022/01/04 19:38:49;;;;;;;11.15;2.90;;;;;;;7.52;59.58;99782.63;5606002;23;20066;-96
2022/01/04 19:41:17;;;;;;;16.17;3.03;;;;;;;7.36;59.00;99756.66;4976335;28;20023;-96
2022/01/04 19:46:15;;;;;;;15.02;2.88;;;;;;;7.42;58.21;99771.09;4932857;29;20048;-95
2022/01/04 19:48:42;;;;;;;12.30;2.22;;;;;;;7.43;58.56;99750.09;5141256;23;20058;-96
2022/01/04 19:51:09;;;;;;;11.07;2.75;;;;;;;7.38;58.97;99754.78;4957498;29;20030;-96
2022/01/04 19:56:10;;;;;;;13.57;2.47;;;;;;;7.41;57.17;99759.00;5393491;23;20066;-95
2022/01/04 19:58:36;;;;;;;12.90;2.92;;;;;;;7.39;59.04;99766.09;4975956;28;20102;-96
2022/01/04 20:01:03;;;;;;;11.73;2.47;;;;;;;7.25;58.89;99769.59;4971739;28;20015;-96
2022/01/04 20:03:28;;;;;;;10.18;2.40;;;;;;;7.30;59.15;99764.88;4978730;28;20034;-96
2022/01/04 20:13:39;;;;;;;12.85;2.72;;;;;;;7.28;59.59;99769.38;1155689;23;20296;-96
2022/01/04 20:16:05;;;;;;;15.65;2.75;;;;;;;7.33;59.66;99778.59;4946874;28;20050;-93
2022/01/04 20:18:30;;;;;;;11.75;2.33;;;;;;;7.33;60.17;99791.66;4948115;29;20083;-95
2022/01/04 20:20:56;;;;;;;12.80;3.58;;;;;;;7.27;59.16;99788.59;4947680;29;20031;-93
2022/01/04 20:23:22;;;;;;;22.42;3.97;;;;;;;7.27;59.03;99786.00;4935624;29;20027;-96
2022/01/04 20:28:22;;;;;;;16.88;2.78;;;;;;;6.90;59.35;99759.59;5577792;23;20055;-96
2022/01/04 21:25:30;;;;;;;;;;;;;;;6.84;61.62;99854.78;5839390;23;20043;-96
2022/01/04 21:27:59;;;;;;;11.48;2.83;;;;;;;6.52;60.93;99838.47;4977177;28;19923;-95
2022/01/04 21:56:17;;;;;;;11.13;2.08;;;;;;;6.67;62.73;99874.03;5831681;23;20056;-96
2022/01/04 22:14:13;;;;;;;11.75;2.00;;;;;;;6.62;62.21;99876.09;5436706;23;20051;-90
2022/01/04 22:16:38;;;;;;;8.98;3.13;;;;;;;6.74;63.10;99875.38;4973600;28;20123;-96
2022/01/04 22:19:04;;;;;;;12.38;2.05;;;;;;;6.79;61.73;99871.63;4979539;28;20023;-95
2022/01/04 22:21:30;;;;;;;4.60;1.35;;;;;;;6.76;61.82;99864.84;4976698;28;20016;-93
2022/01/04 22:23:55;;;;;;;7.82;2.15;;;;;;;6.54;62.52;99871.34;4960279;28;20021;-95
2022/01/04 22:26:21;;;;;;;10.73;3.65;;;;;;;6.53;63.61;99877.47;4957173;29;20013;-96
2022/01/04 22:28:46;;;;;;;8.60;1.77;;;;;;;6.54;63.66;99878.34;4960532;29;20043;-95
2022/01/04 22:31:12;;;;;;;14.23;2.42;;;;;;;6.57;63.16;99866.88;4960419;29;20020;-96
2022/01/04 22:33:37;;;;;;;9.65;1.80;;;;;;;6.56;63.21;99866.03;4960571;28;20095;-94
2022/01/04 22:36:04;;;;;;;11.93;3.92;;;;;;;6.43;63.40;99880.75;4959380;28;20119;-96
2022/01/04 22:38:29;;;;;;;9.90;1.90;;;;;;;6.44;62.30;99885.88;4959339;29;20063;-96
2022/01/04 22:40:55;;;;;;;13.85;2.38;;;;;;;6.51;62.03;99883.72;4954648;29;20075;-93
2022/01/04 22:43:20;;;;;;;8.32;2.42;;;;;;;6.59;62.23;99894.53;4959169;29;20047;-95
2022/01/04 22:45:45;;;;;;;3.28;1.80;;;;;;;6.54;61.67;99886.16;4956431;29;20088;-93
2022/01/04 22:48:12;;;;;;;7.10;2.15;;;;;;;6.50;61.99;99890.72;4957083;29;20031;-92
2022/01/04 22:50:37;;;;;;;7.68;2.13;;;;;;;6.44;62.58;99898.91;4954142;29;20050;-93
2022/01/04 22:53:03;;;;;;;8.95;2.35;;;;;;;6.38;62.49;99914.06;4937758;29;20426;-95
2022/01/04 22:55:28;;;;;;;6.25;1.95;;;;;;;6.37;63.34;99912.41;4937572;29;20172;-95
2022/01/04 22:57:54;;;;;;;14.07;2.70;;;;;;;6.31;62.52;99914.41;4920904;29;20058;-95
2022/01/04 23:00:19;;;;;;;7.70;1.95;;;;;;;6.27;62.65;99925.97;4917670;29;20051;-93
2022/01/04 23:02:46;;;;;;;7.15;2.33;;;;;;;6.18;62.74;99934.31;4918162;29;20028;-94
2022/01/04 23:05:13;;;;;;;11.57;2.00;;;;;;;6.04;62.35;99926.44;4918493;29;20383;-96
2022/01/04 23:07:39;;;;;;;5.28;1.58;;;;;;;6.06;62.75;99930.66;4917992;29;20107;-95
2022/01/04 23:10:05;;;;;;;8.73;1.77;;;;;;;6.00;62.83;99925.75;4918412;29;20052;-95
2022/01/04 23:12:31;;;;;;;4.50;1.50;;;;;;;6.02;63.32;99929.13;4931621;29;20443;-95
2022/01/04 23:14:56;;;;;;;9.15;1.83;;;;;;;5.94;62.90;99929.53;4937499;29;20036;-96
2022/01/04 23:17:21;;;;;;;9.70;1.83;;;;;;;6.06;63.14;99932.41;4937377;29;20118;-94
2022/01/04 23:19:47;;;;;;;13.27;1.73;;;;;;;6.19;64.61;99938.59;4936904;29;20032;-96
2022/01/04 23:22:12;;;;;;;8.93;2.00;;;;;;;6.28;64.07;99943.28;4936964;29;20099;-96
2022/01/04 23:24:38;;;;;;;6.47;1.55;;;;;;;6.31;64.23;99950.09;4939733;29;20058;-96
2022/01/04 23:27:03;;;;;;;6.88;2.10;;;;;;;6.40;64.27;99946.09;4940106;29;20028;-95
2022/01/04 23:29:29;;;;;;;11.48;1.88;;;;;;;6.29;63.48;99952.78;4970632;23;20053;-96
2022/01/04 23:31:54;;;;;;;6.28;1.48;;;;;;;6.39;64.17;99947.03;4940187;28;20087;-96
2022/01/04 23:34:20;;;;;;;11.90;1.83;;;;;;;6.19;62.73;99937.78;4921946;29;20031;-96
2022/01/04 23:36:45;;;;;;;7.03;2.67;;;;;;;6.30;64.05;99936.22;4922161;29;20111;-96
2022/01/04 23:39:10;;;;;;;10.40;1.65;;;;;;;6.40;63.90;99951.31;4922094;29;20028;-96
2022/01/04 23:41:36;;;;;;;10.05;1.63;;;;;;;6.39;62.94;99942.66;4922021;29;20043;-96
2022/01/04 23:44:01;;;;;;;8.75;1.42;;;;;;;6.34;64.06;99949.94;4921867;29;20031;-96
2022/01/04 23:46:26;;;;;;;4.53;1.25;;;;;;;6.32;63.66;99944.78;4932598;29;20027;-96
2022/01/04 23:48:52;;;;;;;7.82;1.35;;;;;;;6.32;63.55;99952.63;4940465;29;20430;-96
2022/01/04 23:51:17;;;;;;;5.88;1.52;;;;;;;6.22;63.24;99955.81;4940268;29;20052;-96
2022/01/04 23:53:43;;;;;;;7.15;1.67;;;;;;;6.08;63.69;99948.78;4939857;29;20363;-96
2022/01/04 23:56:11;;;;;;;21.10;2.83;;;;;;;6.02;64.66;99960.41;4941828;29;20063;-95
2022/01/04 23:58:40;;;;;;;12.05;1.98;;;;;;;6.03;64.03;99958.66;4941605;29;20478;-96
